Apollo Beach, Florida
Current Conditions -  °F | °C
As of 1:58 AM on Friday 24 Oct 2014 (Local Time) from KMCF Reporting Station
Clear Clear  
Wind Chill: 64°   Ceiling: Unl
Heat Index: 64°   Visibility: 10mi
Dew Point: 60°   Wind: 12mph
Humidity: 89%   Direction: 80°E
Pressure: 29.97"   Gusts: NA
Location:  27.77°N, 82.39°W
Report Text: KMCF 240558Z AUTO 08010KT 10SM CLR 18/16 A2997 RMK AO2 SLP152 60000 T01750157 10208 20175 57008 $
Loading
Personal Weather Stations






























Interactive Weather Map
Tropical Storm Tracking
New forecast layout! Learn more

10-Day Weather Forecast

Advertisements
Track Severe Weather on mobile